This is the latest recevied weather packets stored in our database for station/object OH1KK. If no packets are shown the sender has not sent any weather packets the latest 10 day(s).
| Time | Temp. | Humidity | Pressure | Rain* | Wind** | Luminosity | Snow |
|---|---|---|---|---|---|---|---|
| 1777534471 | 10° C | 68% | 1010.8 hPa | 0 mm | - | - | - |
| 1777533555 | 9.44° C | 69% | 1011 hPa | 0 mm | - | - | - |
| 1777532640 | 9.44° C | 71% | 1010.9 hPa | 0 mm | - | - | - |
| 1777531786 | 9.44° C | 72% | 1011.2 hPa | 0 mm | - | - | - |
| 1777530871 | 8.89° C | 73% | 1010.8 hPa | 0 mm | - | - | - |
| 1777529956 | 8.33° C | 76% | 1010.8 hPa | 0 mm | - | - | - |
| 1777529041 | 7.78° C | 77% | 1010.9 hPa | 0 mm | - | - | - |
| 1777527275 | 6.67° C | 81% | 1010.7 hPa | 0 mm | - | - | - |
| 1777526356 | 6.67° C | 83% | 1010.8 hPa | 0 mm | - | - | - |
| 1777525444 | 5.56° C | 86% | 1010.7 hPa | 0 mm | - | - | - |
| 1777524587 | 5.56° C | 87% | 1010.6 hPa | 0 mm | - | - | - |
| 1777523673 | 5° C | 88% | 1010.4 hPa | 0 mm | - | - | - |
| 1777522757 | 4.44° C | 91% | 1010.3 hPa | 0 mm | - | - | - |
| 1777521842 | 3.89° C | 94% | 1010.3 hPa | 0 mm | - | - | - |
| 1777520991 | 3.33° C | 94% | 1010.4 hPa | 0 mm | - | - | - |
| 1777519158 | 3.33° C | 94% | 1010.6 hPa | 0 mm | - | - | - |
| 1777518243 | 2.78° C | 94% | 1010.8 hPa | 0 mm | - | - | - |
| 1777517389 | 2.78° C | 94% | 1010.7 hPa | 0 mm | - | - | - |
| 1777516473 | 3.33° C | 93% | 1010.5 hPa | 0 mm | - | - | - |
| 1777513789 | 2.78° C | 93% | 1010.5 hPa | 0 mm | - | - | - |
| 1777512873 | 2.78° C | 93% | 1010.7 hPa | 0 mm | - | - | - |
| 1777511958 | 2.78° C | 93% | 1010.8 hPa | 0 mm | - | - | - |
| 1777509274 | 2.78° C | 92% | 1011.3 hPa | 0 mm | - | - | - |
| 1777508359 | 2.78° C | 92% | 1011.6 hPa | 0 mm | - | - | - |
| 1777507447 | 2.78° C | 91% | 1011.6 hPa | 0 mm | - | - | - |
* Rain latest hour (hover to see other rain measurements)
** Current wind speed in m/s (hover to see current wind gust speed)